createdAt,value
2019-03-05T00:02:41.058Z,86.19
2019-03-05T00:06:45.021Z,85.97
2019-03-05T00:10:47.823Z,86.08
2019-03-05T00:14:50.598Z,86.32
2019-03-05T00:18:53.572Z,86.19
2019-03-05T00:22:56.523Z,86.20
2019-03-05T00:27:00.339Z,86.13
2019-03-05T00:31:07.703Z,86.19
2019-03-05T00:35:38.663Z,86.09
2019-03-05T00:40:08.116Z,86.20
2019-03-05T00:44:38.116Z,86.16
2019-03-05T00:48:59.306Z,86.26
2019-03-05T00:53:32.555Z,86.32
2019-03-05T00:58:09.045Z,86.40
2019-03-05T01:02:55.351Z,86.27
2019-03-05T01:06:57.950Z,86.37
2019-03-05T01:11:00.714Z,86.61
2019-03-05T01:15:03.519Z,86.66
2019-03-05T01:19:07.319Z,86.46
2019-03-05T01:23:10.046Z,86.46
2019-03-05T01:27:13.076Z,86.49
2019-03-05T01:31:51.465Z,86.49
2019-03-05T01:35:58.364Z,86.62
2019-03-05T01:40:23.577Z,86.74
2019-03-05T01:44:26.211Z,86.56
2019-03-05T01:48:29.040Z,86.81
2019-03-05T01:52:31.719Z,86.67
2019-03-05T01:56:34.386Z,86.80
2019-03-05T02:00:38.841Z,86.76
2019-03-05T02:04:41.596Z,86.66
2019-03-05T02:08:44.325Z,86.50
2019-03-05T02:12:47.033Z,86.48
2019-03-05T02:16:49.808Z,86.41
2019-03-05T02:20:52.633Z,86.21
2019-03-05T02:25:21.758Z,86.33
2019-03-05T02:29:53.606Z,85.96
2019-03-05T02:34:42.841Z,85.92
2019-03-05T02:39:20.616Z,85.65
2019-03-05T02:43:47.117Z,85.34
2019-03-05T02:48:43.904Z,84.97
2019-03-05T02:53:39.561Z,84.67
2019-03-05T02:57:39.896Z,84.28
2019-03-05T03:02:05.775Z,84.08
2019-03-05T03:06:32.995Z,84.07
2019-03-05T03:10:35.892Z,83.84
2019-03-05T03:14:38.585Z,83.41
2019-03-05T03:18:41.477Z,83.11
2019-03-05T03:22:44.205Z,83.26
2019-03-05T03:26:47.972Z,83.09
2019-03-05T03:30:50.787Z,83.17
2019-03-05T03:34:53.429Z,83.05
2019-03-05T03:38:55.988Z,82.98
2019-03-05T03:42:59.121Z,82.86
2019-03-05T03:47:01.775Z,83.26
2019-03-05T03:51:04.404Z,83.64
2019-03-05T03:55:07.581Z,83.47
2019-03-05T03:59:10.220Z,83.61
2019-03-05T04:03:12.926Z,83.51
2019-03-05T04:07:15.731Z,83.10
2019-03-05T04:11:18.315Z,82.97
2019-03-05T04:15:22.351Z,83.02
2019-03-05T04:19:29.619Z,82.87
2019-03-05T04:23:32.346Z,83.00
2019-03-05T04:27:35.090Z,83.27
2019-03-05T04:31:38.437Z,83.15
2019-03-05T04:35:41.007Z,83.25
2019-03-05T04:39:43.764Z,83.37
2019-03-05T04:43:46.806Z,83.39
2019-03-05T04:47:49.577Z,83.58
2019-03-05T04:51:56.278Z,83.75
2019-03-05T04:55:59.054Z,83.70
2019-03-05T05:00:01.685Z,83.53
2019-03-05T05:04:04.713Z,83.62
2019-03-05T05:08:07.452Z,83.49
2019-03-05T05:12:14.985Z,83.34
2019-03-05T05:16:20.276Z,83.12
2019-03-05T05:20:23.211Z,82.91
2019-03-05T05:24:26.086Z,82.50
2019-03-05T05:28:28.902Z,82.07
2019-03-05T05:32:31.796Z,82.01
2019-03-05T05:36:34.577Z,81.72
2019-03-05T05:40:39.083Z,80.95
2019-03-05T05:44:41.827Z,81.07
2019-03-05T05:48:44.509Z,80.82
2019-03-05T05:52:46.995Z,80.15
2019-03-05T05:56:49.674Z,80.01
2019-03-05T06:00:54.711Z,79.75
2019-03-05T06:04:57.209Z,79.65
2019-03-05T06:08:59.950Z,79.94
2019-03-05T06:13:02.384Z,79.17
2019-03-05T06:17:05.276Z,78.88
2019-03-05T06:21:07.783Z,78.68
2019-03-05T06:25:12.156Z,78.30
2019-03-05T06:29:14.648Z,78.18
2019-03-05T06:33:17.331Z,77.75
2019-03-05T06:37:21.629Z,77.73
2019-03-05T06:41:24.431Z,77.23
2019-03-05T06:45:27.090Z,77.27
2019-03-05T06:49:29.674Z,76.46
2019-03-05T06:53:32.207Z,76.81
2019-03-05T06:57:35.093Z,75.83
2019-03-05T07:01:37.660Z,75.94
2019-03-05T07:06:15.891Z,75.59
2019-03-05T07:10:50.124Z,75.47
2019-03-05T07:15:42.174Z,74.99
2019-03-05T07:20:04.120Z,75.07
2019-03-05T07:24:42.131Z,74.90
2019-03-05T07:28:44.537Z,74.51
2019-03-05T07:32:47.138Z,74.68
2019-03-05T07:36:49.647Z,74.36
2019-03-05T07:40:52.509Z,73.02
2019-03-05T07:44:54.866Z,73.98
2019-03-05T07:48:57.266Z,73.91
2019-03-05T07:52:59.595Z,73.97
2019-03-05T07:57:02.160Z,73.72
2019-03-05T08:01:05.090Z,74.42
2019-03-05T08:05:08.402Z,73.66
2019-03-05T08:09:38.993Z,74.00
2019-03-05T08:14:17.756Z,73.67
2019-03-05T08:18:20.175Z,73.54
2019-03-05T08:22:23.318Z,72.91
2019-03-05T08:26:25.876Z,72.58
2019-03-05T08:30:28.727Z,71.11
2019-03-05T08:34:31.367Z,70.47
2019-03-05T08:38:35.070Z,68.68
2019-03-05T08:42:37.526Z,67.25
2019-03-05T08:46:40.017Z,67.67
2019-03-05T08:50:42.474Z,66.38
2019-03-05T08:54:45.567Z,66.87
2019-03-05T08:58:48.147Z,66.35
2019-03-05T09:02:50.746Z,66.19
2019-03-05T09:06:53.194Z,65.87
2019-03-05T09:10:56.342Z,66.80
2019-03-05T09:14:58.720Z,67.74
2019-03-05T09:19:01.283Z,67.70
2019-03-05T09:23:03.694Z,67.90
2019-03-05T09:27:06.127Z,65.38
2019-03-05T09:31:08.442Z,66.54
2019-03-05T09:35:11.451Z,66.64
2019-03-05T09:39:15.642Z,66.50
2019-03-05T09:43:18.139Z,66.37
2019-03-05T09:47:20.606Z,64.93
2019-03-05T09:51:22.963Z,64.13
2019-03-05T09:55:26.717Z,63.40
2019-03-05T09:59:29.212Z,63.33
2019-03-05T10:03:32.560Z,63.44
2019-03-05T10:07:34.969Z,63.42
2019-03-05T10:11:37.296Z,62.97
2019-03-05T10:15:39.829Z,63.76
2019-03-05T10:19:42.324Z,62.25
2019-03-05T10:23:45.433Z,63.09
2019-03-05T10:27:48.569Z,63.92
2019-03-05T10:31:50.952Z,63.82
2019-03-05T10:35:53.550Z,63.25
2019-03-05T10:39:56.057Z,62.52
2019-03-05T10:43:58.613Z,62.21
2019-03-05T10:48:01.221Z,61.81
2019-03-05T10:52:05.452Z,62.32
2019-03-05T10:56:08.141Z,61.65
2019-03-05T11:00:14.755Z,60.02
2019-03-05T11:04:18.282Z,60.28
2019-03-05T11:08:23.496Z,59.62
2019-03-05T11:12:25.990Z,60.83
2019-03-05T11:16:31.079Z,61.81
2019-03-05T11:20:33.112Z,61.68
2019-03-05T11:24:36.811Z,62.21
2019-03-05T11:28:39.221Z,62.44
2019-03-05T11:32:42.057Z,61.69
2019-03-05T11:36:44.999Z,60.81
2019-03-05T11:40:47.354Z,59.65
2019-03-05T11:45:06.735Z,59.28
2019-03-05T11:48:57.021Z,59.27
2019-03-05T11:53:00.853Z,58.79
2019-03-05T11:57:04.818Z,59.17
2019-03-05T12:01:19.111Z,57.25
2019-03-05T12:05:21.860Z,57.36
2019-03-05T12:09:24.261Z,57.75
2019-03-05T12:13:27.781Z,57.26
2019-03-05T12:17:30.194Z,57.45
2019-03-05T12:21:33.862Z,56.78
2019-03-05T12:25:39.957Z,57.12
2019-03-05T12:29:41.106Z,56.91
2019-03-05T12:33:45.653Z,56.52
2019-03-05T12:37:51.102Z,55.82
2019-03-05T12:41:56.477Z,55.67
2019-03-05T12:45:59.413Z,55.07
2019-03-05T12:50:02.247Z,55.04
2019-03-05T12:54:05.277Z,52.85
2019-03-05T12:58:08.071Z,52.94
2019-03-05T13:02:10.955Z,51.02
2019-03-05T13:06:13.505Z,51.59
2019-03-05T13:10:18.247Z,50.93
2019-03-05T13:14:21.150Z,50.49
2019-03-05T13:18:26.919Z,49.78
2019-03-05T13:22:28.902Z,49.43
2019-03-05T13:26:33.178Z,48.00
2019-03-05T13:30:35.699Z,47.92
2019-03-05T13:34:38.019Z,49.49
2019-03-05T13:38:41.683Z,48.05
2019-03-05T13:42:44.652Z,48.92
2019-03-05T13:46:47.033Z,47.59
2019-03-05T13:51:01.414Z,48.68
2019-03-05T13:55:23.515Z,48.67
2019-03-05T13:59:48.356Z,49.69
2019-03-05T14:04:01.878Z,50.60
2019-03-05T14:08:53.877Z,51.14
2019-03-05T14:12:56.672Z,51.53
2019-03-05T14:17:10.875Z,52.22
2019-03-05T14:21:13.608Z,52.57
2019-03-05T14:25:16.571Z,53.20
2019-03-05T14:29:19.994Z,53.53
2019-03-05T14:33:22.652Z,53.58
2019-03-05T14:37:25.753Z,54.34
2019-03-05T14:41:28.361Z,54.06
2019-03-05T14:45:32.891Z,54.69
2019-03-05T14:49:35.233Z,54.39
2019-03-05T14:53:38.860Z,55.15
2019-03-05T14:57:41.495Z,56.03
2019-03-05T15:01:45.192Z,54.30
2019-03-05T15:05:47.701Z,54.48
2019-03-05T15:09:50.356Z,53.93
2019-03-05T15:13:52.932Z,54.11
2019-03-05T15:17:56.111Z,54.91
2019-03-05T15:22:01.914Z,54.66
2019-03-05T15:26:04.518Z,54.30
2019-03-05T15:30:13.889Z,54.68
2019-03-05T15:34:16.522Z,55.43
2019-03-05T15:38:19.047Z,54.82
2019-03-05T15:42:21.891Z,55.10
2019-03-05T15:46:25.494Z,55.38
2019-03-05T15:50:29.771Z,55.83
2019-03-05T15:54:32.794Z,56.00
2019-03-05T15:58:35.592Z,56.72
2019-03-05T16:02:38.372Z,57.51
2019-03-05T16:06:41.819Z,57.83
2019-03-05T16:10:44.739Z,57.45
2019-03-05T16:14:49.932Z,56.39
2019-03-05T16:18:55.091Z,56.99
2019-03-05T16:23:00.630Z,57.72
2019-03-05T16:27:03.664Z,56.75
2019-03-05T16:31:26.098Z,57.11
2019-03-05T16:35:51.908Z,56.72
2019-03-05T16:40:10.577Z,57.02
2019-03-05T16:44:32.427Z,57.86
2019-03-05T16:48:56.570Z,57.50
2019-03-05T16:53:17.056Z,57.25
2019-03-05T16:57:34.462Z,57.75
2019-03-05T17:01:54.727Z,58.07
2019-03-05T17:06:25.681Z,58.09
2019-03-05T17:10:50.461Z,58.88
2019-03-05T17:14:53.171Z,57.86
2019-03-05T17:18:55.762Z,58.65
2019-03-05T17:23:00.008Z,57.61
2019-03-05T17:27:02.709Z,58.36
2019-03-05T17:31:07.220Z,58.75
2019-03-05T17:35:10.055Z,58.66
2019-03-05T17:39:23.386Z,58.87
2019-03-05T17:43:26.221Z,57.49
2019-03-05T17:47:28.962Z,56.31
2019-03-05T17:51:31.853Z,57.18
2019-03-05T17:55:34.907Z,56.88
2019-03-05T17:59:37.541Z,55.79
2019-03-05T18:03:40.210Z,56.81
2019-03-05T18:07:42.718Z,56.87
2019-03-05T18:11:45.646Z,57.64
2019-03-05T18:15:48.539Z,56.49
2019-03-05T18:19:51.492Z,55.43
2019-03-05T18:23:54.188Z,56.01
2019-03-05T18:27:57.093Z,56.54
2019-03-05T18:31:59.890Z,55.72
2019-03-05T18:36:02.673Z,54.62
2019-03-05T18:40:06.013Z,54.73
2019-03-05T18:44:08.949Z,54.07
2019-03-05T18:48:11.506Z,55.41
2019-03-05T18:52:14.362Z,53.85
2019-03-05T18:56:16.949Z,53.76
2019-03-05T19:00:22.300Z,53.04
2019-03-05T19:04:24.970Z,52.36
2019-03-05T19:08:27.943Z,52.01
2019-03-05T19:12:31.739Z,52.00
2019-03-05T19:16:34.741Z,52.85
2019-03-05T19:20:37.423Z,52.38
2019-03-05T19:24:40.183Z,51.88
2019-03-05T19:28:44.439Z,52.17
2019-03-05T19:32:47.370Z,51.50
2019-03-05T19:36:50.016Z,52.62
2019-03-05T19:40:53.520Z,51.73
2019-03-05T19:44:56.132Z,52.65
2019-03-05T19:48:58.776Z,52.34
2019-03-05T19:53:01.378Z,52.35
2019-03-05T19:57:04.100Z,51.84
2019-03-05T20:01:13.625Z,52.49
2019-03-05T20:05:17.445Z,52.89
2019-03-05T20:09:22.828Z,54.65
2019-03-05T20:13:25.953Z,54.67
2019-03-05T20:17:28.789Z,53.22
2019-03-05T20:21:31.813Z,53.87
2019-03-05T20:25:34.590Z,53.84
2019-03-05T20:29:37.337Z,54.09
2019-03-05T20:33:40.030Z,54.09
2019-03-05T20:37:42.730Z,54.33
2019-03-05T20:41:46.677Z,54.22
2019-03-05T20:45:49.993Z,54.53
2019-03-05T20:49:52.793Z,54.47
2019-03-05T20:53:55.721Z,54.36
2019-03-05T20:57:58.553Z,54.98
2019-03-05T21:02:01.389Z,55.30
2019-03-05T21:06:04.239Z,55.71
2019-03-05T21:10:07.665Z,56.38
2019-03-05T21:14:11.590Z,56.85
2019-03-05T21:18:14.446Z,57.55
2019-03-05T21:22:17.403Z,58.15
2019-03-05T21:26:20.303Z,57.79
2019-03-05T21:30:22.960Z,58.24
2019-03-05T21:34:25.758Z,58.05
2019-03-05T21:38:28.473Z,58.45
2019-03-05T21:42:31.531Z,58.89
2019-03-05T21:46:34.125Z,58.66
2019-03-05T21:50:36.795Z,58.66
2019-03-05T21:54:39.542Z,60.06
2019-03-05T21:58:42.278Z,59.66
2019-03-05T22:02:45.069Z,60.06
2019-03-05T22:06:47.681Z,60.24
2019-03-05T22:10:51.535Z,61.25
2019-03-05T22:14:54.703Z,61.47
2019-03-05T22:18:57.308Z,61.59
2019-03-05T22:23:00.015Z,62.49
2019-03-05T22:27:02.734Z,62.60
2019-03-05T22:31:05.699Z,63.05
2019-03-05T22:35:09.134Z,63.04
2019-03-05T22:39:12.361Z,63.68
2019-03-05T22:43:15.295Z,63.36
2019-03-05T22:47:18.154Z,64.20
2019-03-05T22:51:20.775Z,63.98
2019-03-05T22:55:23.642Z,64.41
2019-03-05T22:59:26.212Z,64.36
2019-03-05T23:03:29.370Z,64.79
2019-03-05T23:07:32.153Z,64.96
2019-03-05T23:11:35.108Z,65.24
2019-03-05T23:15:38.222Z,65.60
2019-03-05T23:19:41.006Z,65.69
2019-03-05T23:23:43.747Z,65.66
2019-03-05T23:27:46.746Z,66.30
2019-03-05T23:31:49.503Z,66.47
2019-03-05T23:35:52.257Z,66.56
2019-03-05T23:39:56.058Z,66.84
2019-03-05T23:43:58.802Z,67.30
2019-03-05T23:48:01.593Z,67.35
2019-03-05T23:52:04.542Z,67.09
2019-03-05T23:56:07.278Z,67.77
